createdAt,value
2022-11-30T00:00:09.496Z,5.67
2022-11-30T00:02:35.650Z,5.79
2022-11-30T00:05:01.824Z,5.76
2022-11-30T00:07:27.968Z,5.78
2022-11-30T00:09:54.099Z,5.91
2022-11-30T00:12:20.232Z,5.82
2022-11-30T00:14:46.657Z,5.78
2022-11-30T00:17:13.031Z,5.78
2022-11-30T00:19:39.146Z,5.78
2022-11-30T00:22:05.250Z,5.80
2022-11-30T00:24:31.350Z,5.81
2022-11-30T00:26:57.473Z,5.81
2022-11-30T00:29:23.617Z,5.86
2022-11-30T00:31:49.710Z,5.78
2022-11-30T00:34:15.811Z,5.77
2022-11-30T00:36:41.906Z,5.75
2022-11-30T00:39:07.997Z,5.78
2022-11-30T00:41:34.102Z,5.74
2022-11-30T00:44:00.216Z,5.78
2022-11-30T00:46:26.330Z,5.77
2022-11-30T00:48:52.504Z,5.89
2022-11-30T00:51:18.648Z,5.77
2022-11-30T00:53:44.751Z,5.84
2022-11-30T00:56:10.851Z,5.88
2022-11-30T00:58:36.941Z,5.84
2022-11-30T01:01:03.097Z,5.83
2022-11-30T01:03:29.237Z,5.90
2022-11-30T01:05:55.326Z,5.75
2022-11-30T01:08:21.417Z,5.85
2022-11-30T01:10:47.533Z,5.88
2022-11-30T01:13:13.635Z,5.85
2022-11-30T01:15:39.729Z,5.87
2022-11-30T01:18:05.855Z,5.76
2022-11-30T01:20:31.961Z,5.86
2022-11-30T01:22:58.066Z,5.85
2022-11-30T01:25:24.209Z,5.91
2022-11-30T01:27:50.307Z,5.84
2022-11-30T01:30:16.393Z,5.83
2022-11-30T01:32:42.533Z,5.83
2022-11-30T01:35:08.636Z,5.82
2022-11-30T01:37:34.750Z,5.85
2022-11-30T01:40:00.899Z,5.82
2022-11-30T01:42:27.000Z,5.75
2022-11-30T01:44:53.100Z,5.83
2022-11-30T01:47:19.218Z,5.90
2022-11-30T01:49:45.338Z,5.79
2022-11-30T01:52:11.583Z,5.91
2022-11-30T01:54:38.229Z,5.94
2022-11-30T01:57:04.326Z,5.88
2022-11-30T01:59:30.425Z,5.91
2022-11-30T02:01:56.533Z,5.87
2022-11-30T02:04:22.631Z,5.75
2022-11-30T02:06:48.719Z,5.81
2022-11-30T02:09:15.462Z,5.72
2022-11-30T02:11:41.548Z,5.78
2022-11-30T02:14:07.643Z,5.73
2022-11-30T02:16:33.758Z,5.74
2022-11-30T02:18:59.931Z,5.79
2022-11-30T02:21:26.017Z,5.76
2022-11-30T02:23:52.138Z,5.75
2022-11-30T02:26:18.377Z,5.80
2022-11-30T02:28:44.667Z,5.79
2022-11-30T02:31:10.820Z,5.67
2022-11-30T02:33:36.967Z,5.71
2022-11-30T02:36:03.089Z,5.77
2022-11-30T02:38:29.259Z,5.74
2022-11-30T02:40:55.384Z,5.74
2022-11-30T02:43:21.601Z,5.68
2022-11-30T02:45:47.938Z,5.69
2022-11-30T02:48:14.050Z,5.67
2022-11-30T02:50:40.152Z,5.66
2022-11-30T02:53:06.277Z,5.72
2022-11-30T02:55:32.371Z,5.71
2022-11-30T02:57:59.546Z,5.65
2022-11-30T03:00:25.795Z,5.66
2022-11-30T03:02:51.958Z,5.66
2022-11-30T03:05:18.079Z,5.66
2022-11-30T03:07:44.255Z,5.68
2022-11-30T03:10:10.381Z,5.68
2022-11-30T03:12:36.481Z,5.74
2022-11-30T03:15:02.936Z,5.72
2022-11-30T03:17:29.061Z,5.76
2022-11-30T03:19:55.152Z,5.77
2022-11-30T03:22:21.261Z,5.75
2022-11-30T03:24:47.770Z,5.78
2022-11-30T03:27:14.018Z,5.79
2022-11-30T03:29:40.614Z,5.80
2022-11-30T03:32:06.741Z,5.75
2022-11-30T03:34:32.835Z,5.74
2022-11-30T03:36:58.952Z,5.47
2022-11-30T03:39:25.096Z,5.38
2022-11-30T03:41:51.232Z,5.31
2022-11-30T03:44:17.384Z,5.31
2022-11-30T03:46:43.499Z,5.11
2022-11-30T03:49:09.656Z,5.09
2022-11-30T03:51:35.773Z,5.07
2022-11-30T03:54:01.872Z,5.13
2022-11-30T03:56:27.972Z,5.10
2022-11-30T03:58:54.617Z,5.08
2022-11-30T04:01:20.981Z,4.86
2022-11-30T04:03:47.177Z,4.85
2022-11-30T04:06:13.300Z,4.96
2022-11-30T04:08:39.416Z,4.91
2022-11-30T04:11:05.565Z,4.89
2022-11-30T04:13:31.791Z,4.79
2022-11-30T04:15:57.980Z,4.73
2022-11-30T04:18:31.626Z,4.81
2022-11-30T04:20:57.847Z,4.74
2022-11-30T04:23:23.934Z,4.58
2022-11-30T04:25:50.031Z,4.62
2022-11-30T04:28:16.149Z,4.49
2022-11-30T04:30:42.249Z,4.31
2022-11-30T04:33:08.395Z,4.31
2022-11-30T04:35:34.501Z,4.18
2022-11-30T04:38:00.601Z,4.14
2022-11-30T04:40:26.851Z,4.18
2022-11-30T04:42:52.973Z,4.09
2022-11-30T04:45:19.067Z,4.10
2022-11-30T04:47:45.157Z,4.02
2022-11-30T04:50:11.258Z,4.00
2022-11-30T04:52:37.343Z,4.09
2022-11-30T04:55:03.784Z,4.05
2022-11-30T04:57:29.898Z,4.13
2022-11-30T04:59:56.011Z,4.03
2022-11-30T05:02:22.101Z,3.98
2022-11-30T05:04:48.502Z,3.91
2022-11-30T05:07:17.622Z,3.93
2022-11-30T05:09:43.730Z,4.00
2022-11-30T05:12:09.836Z,3.93
2022-11-30T05:14:35.930Z,3.77
2022-11-30T05:17:02.026Z,3.80
2022-11-30T05:19:28.136Z,3.88
2022-11-30T05:21:54.233Z,3.92
2022-11-30T05:24:20.330Z,4.03
2022-11-30T05:26:46.455Z,4.03
2022-11-30T05:29:12.539Z,3.99
2022-11-30T05:31:38.673Z,4.02
2022-11-30T05:34:04.819Z,3.81
2022-11-30T05:36:30.910Z,3.81
2022-11-30T05:38:56.992Z,3.62
2022-11-30T05:41:23.119Z,3.68
2022-11-30T05:43:49.206Z,3.75
2022-11-30T05:46:15.335Z,3.73
2022-11-30T05:48:41.503Z,3.69
2022-11-30T05:51:07.625Z,3.69
2022-11-30T05:53:33.713Z,3.72
2022-11-30T05:55:59.817Z,3.74
2022-11-30T05:58:25.940Z,3.61
2022-11-30T06:00:52.064Z,3.80
2022-11-30T06:03:18.236Z,3.71
2022-11-30T06:05:44.385Z,3.76
2022-11-30T06:08:13.373Z,3.80
2022-11-30T06:10:39.487Z,3.74
2022-11-30T06:13:05.568Z,3.76
2022-11-30T06:15:31.660Z,3.80
2022-11-30T06:17:57.772Z,3.84
2022-11-30T06:20:23.879Z,3.78
2022-11-30T06:22:49.998Z,3.80
2022-11-30T06:25:17.063Z,3.87
2022-11-30T06:27:43.190Z,3.86
2022-11-30T06:30:09.281Z,3.78
2022-11-30T06:32:35.395Z,3.79
2022-11-30T06:35:01.506Z,3.79
2022-11-30T06:37:27.598Z,3.84
2022-11-30T06:40:08.956Z,3.91
2022-11-30T06:42:35.053Z,3.91
2022-11-30T06:45:01.172Z,4.00
2022-11-30T06:47:27.254Z,3.89
2022-11-30T06:49:53.406Z,3.88
2022-11-30T06:52:19.641Z,3.88
2022-11-30T06:54:46.120Z,3.99
2022-11-30T06:57:12.541Z,3.98
2022-11-30T06:59:38.694Z,4.08
2022-11-30T07:02:09.708Z,3.98
2022-11-30T07:04:38.339Z,3.99
2022-11-30T07:07:04.490Z,3.97
2022-11-30T07:09:30.606Z,4.08
2022-11-30T07:11:56.716Z,3.98
2022-11-30T07:14:22.931Z,4.01
2022-11-30T07:16:49.212Z,4.03
2022-11-30T07:19:15.337Z,4.02
2022-11-30T07:21:41.452Z,3.95
2022-11-30T07:24:07.555Z,3.98
2022-11-30T07:26:33.712Z,3.97
2022-11-30T07:28:59.839Z,4.07
2022-11-30T07:31:26.063Z,4.02
2022-11-30T07:33:52.229Z,4.01
2022-11-30T07:36:18.332Z,3.97
2022-11-30T07:38:44.426Z,4.12
2022-11-30T07:41:10.525Z,4.12
2022-11-30T07:43:36.650Z,4.12
2022-11-30T07:46:02.869Z,4.08
2022-11-30T07:48:29.072Z,4.19
2022-11-30T07:51:01.662Z,4.12
2022-11-30T07:53:27.805Z,4.24
2022-11-30T07:55:57.014Z,4.21
2022-11-30T07:58:23.285Z,4.17
2022-11-30T08:00:49.498Z,4.23
2022-11-30T08:03:15.607Z,4.15
2022-11-30T08:05:41.713Z,4.21
2022-11-30T08:08:08.027Z,4.19
2022-11-30T08:10:34.183Z,4.26
2022-11-30T08:13:00.372Z,4.21
2022-11-30T08:15:32.625Z,4.21
2022-11-30T08:17:59.723Z,4.25
2022-11-30T08:20:25.939Z,4.18
2022-11-30T08:22:52.102Z,4.30
2022-11-30T08:25:21.406Z,4.30
2022-11-30T08:27:48.021Z,4.31
2022-11-30T08:30:14.115Z,4.10
2022-11-30T08:32:40.206Z,4.26
2022-11-30T08:35:06.322Z,4.30
2022-11-30T08:37:32.409Z,4.45
2022-11-30T08:39:58.510Z,4.46
2022-11-30T08:42:24.736Z,4.38
2022-11-30T08:44:50.831Z,4.22
2022-11-30T08:47:16.954Z,4.40
2022-11-30T08:49:43.126Z,4.20
2022-11-30T08:52:16.985Z,4.28
2022-11-30T08:54:43.906Z,4.29
2022-11-30T08:57:10.017Z,4.22
2022-11-30T08:59:36.117Z,4.22
2022-11-30T09:02:02.247Z,4.32
2022-11-30T09:04:28.626Z,4.41
2022-11-30T09:06:54.736Z,4.40
2022-11-30T09:09:20.861Z,4.53
2022-11-30T09:11:46.988Z,4.52
2022-11-30T09:14:13.075Z,4.55
2022-11-30T09:16:39.176Z,4.42
2022-11-30T09:19:05.342Z,4.38
2022-11-30T09:21:31.554Z,4.49
2022-11-30T09:23:57.657Z,4.41
2022-11-30T09:26:23.824Z,4.44
2022-11-30T09:28:49.923Z,4.41
2022-11-30T09:31:16.070Z,4.50
2022-11-30T09:33:42.221Z,4.56
2022-11-30T09:36:08.322Z,4.31
2022-11-30T09:38:34.421Z,4.39
2022-11-30T09:41:00.554Z,4.42
2022-11-30T09:43:26.692Z,4.40
2022-11-30T09:45:52.821Z,4.32
2022-11-30T09:48:18.967Z,4.32
2022-11-30T09:50:45.080Z,4.40
2022-11-30T09:53:11.162Z,4.49
2022-11-30T09:55:37.269Z,4.39
2022-11-30T09:58:03.359Z,4.43
2022-11-30T10:00:29.455Z,4.34
2022-11-30T10:02:55.690Z,4.52
2022-11-30T10:05:21.895Z,4.43
2022-11-30T10:07:48.066Z,4.39
2022-11-30T10:10:31.756Z,4.40
2022-11-30T10:12:58.978Z,4.49
2022-11-30T10:15:25.100Z,4.45
2022-11-30T10:17:51.196Z,4.47
2022-11-30T10:20:17.309Z,4.60
2022-11-30T10:22:43.493Z,4.69
2022-11-30T10:25:12.026Z,4.66
2022-11-30T10:27:38.320Z,4.54
2022-11-30T10:30:04.484Z,4.61
2022-11-30T10:32:30.577Z,4.63
2022-11-30T10:34:56.677Z,4.55
2022-11-30T10:37:22.800Z,4.71
2022-11-30T10:39:48.907Z,4.79
2022-11-30T10:42:15.006Z,4.63
2022-11-30T10:44:41.122Z,4.71
2022-11-30T10:47:07.225Z,4.69
2022-11-30T10:49:33.319Z,4.61
2022-11-30T10:51:59.438Z,4.57
2022-11-30T10:54:25.574Z,4.59
2022-11-30T10:56:51.667Z,4.67
2022-11-30T10:59:17.774Z,4.65
2022-11-30T11:01:43.950Z,4.76
2022-11-30T11:04:10.135Z,4.69
2022-11-30T11:06:36.369Z,4.69
2022-11-30T11:09:02.569Z,4.65
2022-11-30T11:11:28.655Z,4.62
2022-11-30T11:13:54.771Z,4.76
2022-11-30T11:16:20.927Z,4.60
2022-11-30T11:18:47.030Z,4.77
2022-11-30T11:21:13.150Z,4.73
2022-11-30T11:23:39.294Z,4.65
2022-11-30T11:26:05.403Z,4.68
2022-11-30T11:28:31.518Z,4.75
2022-11-30T11:30:57.668Z,4.74
2022-11-30T11:33:23.807Z,4.66
2022-11-30T11:35:50.398Z,4.73
2022-11-30T11:38:16.576Z,4.78
2022-11-30T11:40:42.711Z,4.60
2022-11-30T11:43:08.833Z,4.56
2022-11-30T11:45:34.958Z,4.70
2022-11-30T11:48:01.069Z,4.77
2022-11-30T11:51:04.324Z,4.73
2022-11-30T11:53:13.376Z,4.59
2022-11-30T11:55:39.535Z,4.57
2022-11-30T11:58:05.628Z,4.60
2022-11-30T12:00:31.720Z,4.66
2022-11-30T12:02:57.888Z,4.80
2022-11-30T12:05:23.978Z,4.65
2022-11-30T12:07:50.410Z,4.63
2022-11-30T12:10:43.630Z,4.66
2022-11-30T12:13:02.698Z,4.64
2022-11-30T12:15:28.864Z,4.69
2022-11-30T12:17:55.028Z,4.72
2022-11-30T12:20:21.124Z,4.72
2022-11-30T12:22:47.243Z,4.81
2022-11-30T12:25:13.342Z,4.73
2022-11-30T12:27:39.447Z,4.75
2022-11-30T12:30:06.049Z,4.72
2022-11-30T12:32:32.136Z,4.63
2022-11-30T12:34:58.235Z,4.67
2022-11-30T12:37:24.389Z,4.63
2022-11-30T12:39:50.675Z,4.54
2022-11-30T12:42:16.860Z,4.58
2022-11-30T12:44:42.972Z,4.55
2022-11-30T12:47:09.059Z,4.53
2022-11-30T12:49:35.175Z,4.57
2022-11-30T12:52:01.281Z,4.54
2022-11-30T12:54:27.396Z,4.57
2022-11-30T12:56:53.577Z,4.65
2022-11-30T12:59:19.680Z,4.56
2022-11-30T13:01:45.861Z,4.66
2022-11-30T13:04:11.995Z,4.56
2022-11-30T13:06:38.120Z,4.48
2022-11-30T13:09:04.235Z,4.48
2022-11-30T13:11:30.332Z,4.38
2022-11-30T13:13:56.448Z,4.44
2022-11-30T13:16:22.602Z,4.49
2022-11-30T13:18:48.762Z,4.46
2022-11-30T13:21:14.959Z,4.46
2022-11-30T13:23:41.060Z,4.57
2022-11-30T13:26:08.582Z,4.59
2022-11-30T13:28:35.485Z,4.54
2022-11-30T13:31:01.638Z,4.56
2022-11-30T13:33:27.841Z,4.61
2022-11-30T13:35:54.065Z,4.57
2022-11-30T13:38:36.269Z,4.61
2022-11-30T13:41:03.458Z,4.59
2022-11-30T13:43:29.558Z,4.48
2022-11-30T13:45:55.671Z,4.48
2022-11-30T13:48:21.788Z,4.44
2022-11-30T13:50:47.978Z,4.57
2022-11-30T13:53:14.085Z,4.61
2022-11-30T13:55:40.218Z,4.47
2022-11-30T13:58:06.315Z,4.45
2022-11-30T14:00:32.496Z,4.39
2022-11-30T14:02:58.669Z,4.45
2022-11-30T14:05:24.768Z,4.49
2022-11-30T14:07:50.925Z,4.48
2022-11-30T14:10:17.085Z,4.54
2022-11-30T14:12:43.179Z,4.43
2022-11-30T14:15:09.271Z,4.46
2022-11-30T14:17:35.398Z,4.45
2022-11-30T14:20:01.523Z,4.48
2022-11-30T14:22:27.623Z,4.45
2022-11-30T14:24:53.753Z,4.57
2022-11-30T14:27:19.837Z,4.63
2022-11-30T14:29:46.376Z,4.58
2022-11-30T14:32:12.683Z,4.66
2022-11-30T14:34:38.781Z,4.53
2022-11-30T14:37:04.873Z,4.53
2022-11-30T14:39:31.036Z,4.50
2022-11-30T14:41:57.145Z,4.57
2022-11-30T14:44:23.244Z,4.56
2022-11-30T14:46:49.402Z,4.68
2022-11-30T14:49:15.508Z,4.65
2022-11-30T14:51:41.592Z,4.52
2022-11-30T14:54:07.712Z,4.52
2022-11-30T14:56:33.790Z,4.42
2022-11-30T14:58:59.888Z,4.44
2022-11-30T15:01:26.034Z,4.42
2022-11-30T15:03:52.165Z,4.52
2022-11-30T15:06:18.666Z,4.57
2022-11-30T15:08:44.788Z,4.42
2022-11-30T15:11:10.878Z,4.27
2022-11-30T15:13:36.976Z,4.25
2022-11-30T15:16:03.132Z,4.31
2022-11-30T15:18:29.266Z,4.42
2022-11-30T15:20:55.366Z,4.47
2022-11-30T15:23:21.488Z,4.35
2022-11-30T15:25:47.595Z,4.36
2022-11-30T15:28:13.693Z,4.36
2022-11-30T15:30:39.800Z,4.26
2022-11-30T15:33:05.900Z,4.20
2022-11-30T15:35:57.021Z,4.23
2022-11-30T15:38:18.139Z,4.26
2022-11-30T15:40:46.724Z,4.18
2022-11-30T15:43:15.072Z,4.23
2022-11-30T15:45:41.556Z,4.18
2022-11-30T15:48:07.729Z,4.20
2022-11-30T15:50:33.819Z,4.20
2022-11-30T15:52:59.941Z,4.22
2022-11-30T15:55:26.037Z,4.16
2022-11-30T15:57:52.125Z,4.24
2022-11-30T16:00:18.235Z,4.13
2022-11-30T16:02:44.412Z,4.25
2022-11-30T16:05:14.120Z,4.19
2022-11-30T16:07:41.096Z,4.08
2022-11-30T16:10:07.236Z,4.12
2022-11-30T16:12:33.327Z,4.09
2022-11-30T16:14:59.440Z,4.07
2022-11-30T16:17:25.539Z,4.12
2022-11-30T16:19:51.712Z,4.08
2022-11-30T16:22:17.859Z,4.12
2022-11-30T16:24:43.960Z,4.18
2022-11-30T16:27:10.064Z,4.20
2022-11-30T16:29:36.196Z,4.13
2022-11-30T16:32:02.380Z,4.04
2022-11-30T16:34:28.547Z,4.12
2022-11-30T16:36:54.671Z,4.16
2022-11-30T16:39:20.781Z,4.07
2022-11-30T16:41:46.923Z,4.12
2022-11-30T16:44:13.342Z,4.07
2022-11-30T16:46:39.431Z,4.04
2022-11-30T16:49:05.538Z,4.02
2022-11-30T16:51:31.677Z,3.99
2022-11-30T16:53:57.790Z,4.09
2022-11-30T16:56:23.879Z,4.13
2022-11-30T16:58:49.994Z,3.97
2022-11-30T17:01:16.167Z,4.08
2022-11-30T17:03:42.317Z,4.22
2022-11-30T17:06:08.421Z,4.14
2022-11-30T17:08:34.522Z,4.10
2022-11-30T17:11:00.630Z,4.18
2022-11-30T17:13:26.727Z,4.11
2022-11-30T17:15:52.837Z,4.04
2022-11-30T17:18:18.933Z,4.15
2022-11-30T17:20:45.053Z,4.21
2022-11-30T17:23:11.143Z,4.15
2022-11-30T17:25:37.236Z,4.13
2022-11-30T17:28:03.342Z,4.04
2022-11-30T17:30:29.470Z,3.96
2022-11-30T17:32:55.617Z,4.07
2022-11-30T17:35:21.737Z,4.04
2022-11-30T17:37:47.832Z,4.05
2022-11-30T17:40:13.920Z,3.97
2022-11-30T17:42:40.030Z,4.02
2022-11-30T17:45:06.131Z,3.97
2022-11-30T17:47:32.229Z,3.94
2022-11-30T17:50:01.126Z,3.95
2022-11-30T17:52:27.264Z,3.95
2022-11-30T17:54:53.365Z,3.94
2022-11-30T17:57:19.477Z,3.88
2022-11-30T17:59:45.556Z,3.81
2022-11-30T18:02:11.716Z,3.86
2022-11-30T18:04:37.855Z,3.94
2022-11-30T18:07:03.939Z,4.05
2022-11-30T18:09:30.033Z,4.10
2022-11-30T18:11:56.153Z,4.05
2022-11-30T18:14:22.252Z,4.10
2022-11-30T18:16:48.402Z,4.14
2022-11-30T18:19:14.641Z,4.20
2022-11-30T18:21:40.752Z,3.98
2022-11-30T18:24:06.848Z,3.98
2022-11-30T18:26:32.961Z,4.08
2022-11-30T18:28:59.053Z,4.01
2022-11-30T18:31:25.248Z,3.99
2022-11-30T18:33:51.376Z,3.97
2022-11-30T18:36:17.459Z,4.00
2022-11-30T18:38:43.564Z,4.05
2022-11-30T18:41:09.707Z,3.95
2022-11-30T18:43:35.810Z,3.95
2022-11-30T18:46:01.951Z,4.00
2022-11-30T18:48:28.467Z,3.95
2022-11-30T18:50:54.560Z,3.91
2022-11-30T18:53:20.659Z,3.94
2022-11-30T18:55:46.790Z,4.01
2022-11-30T18:58:12.885Z,3.90
2022-11-30T19:00:38.971Z,3.93
2022-11-30T19:03:05.133Z,3.92
2022-11-30T19:05:31.284Z,3.98
2022-11-30T19:07:57.501Z,4.04
2022-11-30T19:10:23.652Z,4.11
2022-11-30T19:12:49.761Z,4.08
2022-11-30T19:15:15.858Z,4.01
2022-11-30T19:17:41.964Z,4.11
2022-11-30T19:20:08.067Z,4.06
2022-11-30T19:22:34.170Z,4.06
2022-11-30T19:25:00.531Z,4.04
2022-11-30T19:27:26.788Z,3.99
2022-11-30T19:29:52.911Z,3.95
2022-11-30T19:32:19.067Z,3.95
2022-11-30T19:34:45.236Z,3.92
2022-11-30T19:37:11.398Z,3.95
2022-11-30T19:39:37.502Z,4.02
2022-11-30T19:42:03.605Z,3.94
2022-11-30T19:44:29.704Z,3.91
2022-11-30T19:46:55.828Z,3.88
2022-11-30T19:49:21.914Z,3.92
2022-11-30T19:51:48.080Z,3.94
2022-11-30T19:54:15.017Z,4.03
2022-11-30T19:56:41.125Z,3.93
2022-11-30T19:59:07.256Z,3.94
2022-11-30T20:01:33.458Z,3.97
2022-11-30T20:03:59.608Z,3.96
2022-11-30T20:06:25.710Z,3.98
2022-11-30T20:08:51.824Z,4.14
2022-11-30T20:11:17.907Z,4.22
2022-11-30T20:13:44.009Z,4.04
2022-11-30T20:16:10.195Z,4.00
2022-11-30T20:18:38.248Z,4.03
2022-11-30T20:21:07.470Z,3.85
2022-11-30T20:23:33.608Z,3.93
2022-11-30T20:25:59.707Z,3.87
2022-11-30T20:28:25.804Z,3.97
2022-11-30T20:30:51.961Z,4.04
2022-11-30T20:33:19.513Z,3.96
2022-11-30T20:35:45.621Z,4.08
2022-11-30T20:38:11.760Z,4.02
2022-11-30T20:40:37.854Z,4.12
2022-11-30T20:43:03.948Z,4.13
2022-11-30T20:45:30.172Z,3.91
2022-11-30T20:47:56.269Z,3.98
2022-11-30T20:50:22.368Z,4.20
2022-11-30T20:52:48.552Z,4.23
2022-11-30T20:55:14.661Z,4.26
2022-11-30T20:57:40.767Z,4.02
2022-11-30T21:00:11.629Z,4.21
2022-11-30T21:02:39.218Z,4.19
2022-11-30T21:05:05.361Z,4.21
2022-11-30T21:07:31.500Z,4.15
2022-11-30T21:09:57.633Z,3.99
2022-11-30T21:12:23.752Z,4.00
2022-11-30T21:14:50.052Z,3.95
2022-11-30T21:17:16.355Z,4.04
2022-11-30T21:19:42.479Z,3.84
2022-11-30T21:22:08.587Z,3.92
2022-11-30T21:24:34.707Z,3.87
2022-11-30T21:27:00.807Z,3.82
2022-11-30T21:29:26.911Z,4.02
2022-11-30T21:31:53.000Z,3.86
2022-11-30T21:34:19.100Z,3.90
2022-11-30T21:36:45.232Z,4.10
2022-11-30T21:39:11.326Z,4.09
2022-11-30T21:41:37.414Z,3.90
2022-11-30T21:44:03.534Z,3.88
2022-11-30T21:46:29.722Z,3.74
2022-11-30T21:48:55.888Z,3.78
2022-11-30T21:51:22.047Z,3.78
2022-11-30T21:53:48.148Z,3.83
2022-11-30T21:56:14.248Z,3.71
2022-11-30T21:58:40.905Z,3.82
2022-11-30T22:01:07.053Z,3.89
2022-11-30T22:03:33.259Z,3.71
2022-11-30T22:05:59.459Z,3.77
2022-11-30T22:08:25.549Z,3.69
2022-11-30T22:10:51.648Z,3.76
2022-11-30T22:13:17.753Z,3.79
2022-11-30T22:15:43.874Z,3.93
2022-11-30T22:18:09.997Z,3.89
2022-11-30T22:20:36.132Z,3.99
2022-11-30T22:23:02.248Z,3.83
2022-11-30T22:25:28.336Z,4.03
2022-11-30T22:27:54.451Z,3.93
2022-11-30T22:30:20.562Z,4.02
2022-11-30T22:32:46.658Z,3.90
2022-11-30T22:35:12.771Z,3.86
2022-11-30T22:37:38.885Z,3.97
2022-11-30T22:40:05.051Z,3.95
2022-11-30T22:42:31.156Z,3.95
2022-11-30T22:44:57.236Z,3.84
2022-11-30T22:47:23.321Z,3.86
2022-11-30T22:49:49.631Z,3.84
2022-11-30T22:52:15.889Z,3.83
2022-11-30T22:54:42.062Z,3.71
2022-11-30T22:57:08.273Z,3.78
2022-11-30T22:59:34.374Z,3.70
2022-11-30T23:02:00.467Z,3.67
2022-11-30T23:04:27.122Z,3.66
2022-11-30T23:06:53.248Z,3.62
2022-11-30T23:09:19.365Z,3.63
2022-11-30T23:11:45.532Z,3.64
2022-11-30T23:14:11.642Z,3.61
2022-11-30T23:16:37.783Z,3.57
2022-11-30T23:19:03.957Z,3.62
2022-11-30T23:21:30.445Z,3.63
2022-11-30T23:23:56.724Z,3.67
2022-11-30T23:26:22.829Z,3.76
2022-11-30T23:28:48.968Z,3.77
2022-11-30T23:31:33.871Z,3.75
2022-11-30T23:34:01.273Z,3.65
2022-11-30T23:36:27.381Z,3.67
2022-11-30T23:38:53.471Z,3.60
2022-11-30T23:41:19.580Z,3.61
2022-11-30T23:43:45.672Z,3.62
2022-11-30T23:46:11.753Z,3.67
2022-11-30T23:48:37.893Z,3.62
2022-11-30T23:51:03.985Z,3.63
2022-11-30T23:53:30.071Z,3.63
2022-11-30T23:55:56.700Z,3.81
2022-11-30T23:58:22.820Z,3.86
